Vulcan, Michigan
Current Conditions -  °F | °C
As of 11:54 PM on Thursday 30 Oct 2014 (Local Time) from KIMT Reporting Station
Overcast Overcast  
Wind Chill: 28°   Ceiling: 1800
Heat Index: 36°   Visibility: 10mi
Dew Point: 31°   Wind: 12mph
Humidity: 82%   Direction: 340°NNW
Pressure: 30"   Gusts: NA
Location:  45.78°N, 87.86°W
Report Text: KIMT 310454Z AUTO 34010KT 10SM BKN018 OVC090 02/M01 A3000 RMK AO2 RAE07B13E23 SLP171 P0000 T00221006
Loading
Personal Weather Stations






























Interactive Weather Map
Tropical Storm Tracking
New forecast layout! Learn more

10-Day Weather Forecast

Advertisements
Track Severe Weather on mobile